Time;durP1;ratioP1;P1;durP2;ratioP2;P2;SDS_P1;SDS_P2;PMS_P1;PMS_P2;Temp;Humidity;BMP_temperature;BMP_pressure;BME280_temperature;BME280_humidity;BME280_pressure;Samples;Min_cycle;Max_cycle;Signal;HPM_P1;HPM_P2
2022/01/31 00:00:14;;;;;;;6.10;2.70;;;;;;;0.63;88.52;97082.25;108959;1277;136929;-63
2022/01/31 00:02:44;;;;;;;4.90;2.30;;;;;;;0.62;88.35;97080.04;109099;1277;22424;-64
2022/01/31 00:05:12;;;;;;;4.20;1.70;;;;;;;0.60;88.29;97080.34;108993;1276;138011;-63
2022/01/31 00:08:00;;;;;;;4.00;1.90;;;;;;;0.59;88.34;97081.34;109122;1276;22491;-64
2022/01/31 00:10:30;;;;;;;3.50;1.70;;;;;;;0.58;88.20;97082.52;109160;1277;22503;-63
2022/01/31 00:15:53;;;;;;;1.80;1.30;;;;;;;0.59;87.79;97080.91;109003;1277;22443;-63
2022/01/31 00:18:21;;;;;;;1.50;1.10;;;;;;;0.58;88.12;97078.54;109028;1277;138322;-63
2022/01/31 00:21:07;;;;;;;1.20;1.00;;;;;;;0.58;88.18;97073.14;108992;1277;22567;-63
2022/01/31 00:23:38;;;;;;;1.80;1.30;;;;;;;0.59;88.24;97069.28;109048;1277;138134;-63
2022/01/31 00:26:06;;;;;;;1.50;0.90;;;;;;;0.60;88.23;97062.60;109076;1277;22435;-63
2022/01/31 00:28:33;;;;;;;1.50;0.90;;;;;;;0.61;88.18;97063.41;109112;1277;23761;-62
2022/01/31 00:31:02;;;;;;;1.10;0.80;;;;;;;0.59;88.00;97064.09;109004;1277;137035;-62
2022/01/31 00:33:30;;;;;;;3.40;1.10;;;;;;;0.58;88.07;97064.95;109117;1277;22443;-62
2022/01/31 00:36:01;;;;;;;1.80;0.90;;;;;;;0.57;88.43;97061.84;108870;1277;138183;-62
2022/01/31 00:38:30;;;;;;;2.30;1.20;;;;;;;0.54;87.98;97062.66;109091;1277;22507;-62
2022/01/31 00:40:58;;;;;;;1.60;1.00;;;;;;;0.53;88.26;97062.23;109018;1277;22636;-63
2022/01/31 00:43:26;;;;;;;1.50;1.10;;;;;;;0.53;88.38;97062.82;108992;1277;138015;-63
2022/01/31 00:46:00;;;;;;;1.30;1.00;;;;;;;0.53;88.19;97060.41;109137;1276;22529;-63
2022/01/31 00:48:29;;;;;;;2.00;0.90;;;;;;;0.52;88.40;97058.05;108985;1276;138035;-63
2022/01/31 00:50:58;;;;;;;1.00;0.80;;;;;;;0.52;88.42;97053.65;109091;1277;22470;-63
2022/01/31 00:53:26;;;;;;;1.40;0.90;;;;;;;0.52;88.20;97048.06;108929;1277;138239;-63
2022/01/31 00:55:54;;;;;;;1.40;0.70;;;;;;;0.52;88.52;97046.68;109118;1277;22426;-63
2022/01/31 00:58:23;;;;;;;2.00;1.00;;;;;;;0.53;88.39;97049.27;108961;1277;22457;-63
2022/01/31 01:00:51;;;;;;;0.80;0.80;;;;;;;0.53;88.59;97054.08;109021;1277;137445;-63
2022/01/31 01:03:19;;;;;;;1.60;0.90;;;;;;;0.51;88.35;97056.31;108913;1277;22576;-63
2022/01/31 01:05:47;;;;;;;1.90;1.10;;;;;;;0.50;88.67;97048.81;108839;1278;138388;-63
2022/01/31 01:08:16;;;;;;;2.30;1.40;;;;;;;0.48;88.40;97049.53;109028;1277;22437;-63
2022/01/31 01:10:45;;;;;;;3.60;1.80;;;;;;;0.46;88.62;97048.75;109100;1277;22548;-63
2022/01/31 01:13:13;;;;;;;6.00;2.10;;;;;;;0.46;88.75;97048.70;108980;1276;137550;-63
2022/01/31 01:15:41;;;;;;;4.00;1.90;;;;;;;0.44;88.64;97044.84;108978;1277;22726;-63
2022/01/31 01:18:09;;;;;;;5.20;2.80;;;;;;;0.44;88.52;97046.59;108993;1277;137785;-63
2022/01/31 01:20:37;;;;;;;4.40;2.30;;;;;;;0.44;88.49;97044.84;108900;1277;22416;-63
2022/01/31 01:23:13;;;;;;;2.50;1.50;;;;;;;0.45;88.81;97039.11;108893;1277;138950;-63
2022/01/31 01:25:42;;;;;;;2.90;1.60;;;;;;;0.46;89.01;97042.05;109144;1277;23383;-63
2022/01/31 01:28:10;;;;;;;1.70;1.00;;;;;;;0.46;88.87;97046.62;108926;1277;22538;-63
2022/01/31 01:30:38;;;;;;;2.30;1.10;;;;;;;0.45;89.11;97047.67;108855;1277;139787;-63
2022/01/31 01:33:17;;;;;;;3.80;1.80;;;;;;;0.45;88.74;97044.46;108964;1277;22654;-63
2022/01/31 01:35:48;;;;;;;4.00;2.00;;;;;;;0.44;88.92;97045.36;108842;1277;137120;-64
2022/01/31 01:38:18;;;;;;;3.90;1.70;;;;;;;0.41;88.97;97044.17;109087;1277;22681;-63
2022/01/31 01:40:46;;;;;;;2.50;1.30;;;;;;;0.37;89.18;97045.84;109091;1277;22401;-59
2022/01/31 01:43:17;;;;;;;3.60;1.10;;;;;;;0.33;89.20;97052.55;108821;1277;137122;-60
2022/01/31 01:45:45;;;;;;;1.20;0.80;;;;;;;0.32;89.01;97053.77;109005;1277;23601;-59
2022/01/31 01:48:16;;;;;;;2.00;1.10;;;;;;;0.30;88.88;97055.56;108902;1277;138599;-59
2022/01/31 01:50:45;;;;;;;1.50;0.80;;;;;;;0.27;89.34;97057.44;108981;1277;22455;-59
2022/01/31 01:53:13;;;;;;;1.70;0.90;;;;;;;0.26;89.13;97058.92;108783;1277;137819;-60
2022/01/31 01:55:46;;;;;;;2.00;1.40;;;;;;;0.26;89.11;97061.64;108979;1277;23184;-60
2022/01/31 01:58:16;;;;;;;1.10;0.80;;;;;;;0.24;89.21;97059.49;109064;1277;22422;-59
2022/01/31 02:00:58;;;;;;;2.10;0.90;;;;;;;0.26;89.04;97061.23;108994;1275;137674;-59
2022/01/31 02:03:36;;;;;;;2.60;1.20;;;;;;;0.27;89.04;97062.95;109145;1277;22441;-60
2022/01/31 02:06:05;;;;;;;3.00;1.20;;;;;;;0.30;89.26;97060.75;109056;1276;137846;-59
2022/01/31 02:08:41;;;;;;;2.30;1.20;;;;;;;0.28;89.17;97057.46;109070;1277;22430;-59
2022/01/31 02:11:11;;;;;;;4.00;1.40;;;;;;;0.30;89.23;97057.61;108909;1277;137762;-59
2022/01/31 02:13:48;;;;;;;;;;;;;;;0.31;89.11;97057.83;109064;1277;22424;-59
2022/01/31 02:16:24;;;;;;;2.20;1.10;;;;;;;0.28;89.12;97059.20;109220;1276;22448;-59
2022/01/31 02:19:01;;;;;;;1.90;1.30;;;;;;;0.27;89.13;97054.92;108933;1277;137351;-59
2022/01/31 02:21:51;;;;;;;2.10;1.10;;;;;;;0.26;89.01;97059.68;109225;1276;22495;-59
2022/01/31 02:24:38;;;;;;;2.10;1.50;;;;;;;0.25;88.79;97058.70;109127;1275;137850;-59
2022/01/31 02:27:27;;;;;;;4.00;1.60;;;;;;;0.24;88.89;97060.71;109008;1276;22460;-60
2022/01/31 02:29:55;;;;;;;4.10;1.40;;;;;;;0.22;88.84;97064.60;108925;1276;138289;-60
2022/01/31 02:32:23;;;;;;;1.60;1.00;;;;;;;0.20;88.68;97067.68;109094;1276;22500;-59
2022/01/31 02:34:55;;;;;;;3.80;1.30;;;;;;;0.20;88.74;97064.36;109030;1277;22526;-59
2022/01/31 02:37:23;;;;;;;1.80;1.00;;;;;;;0.19;88.72;97069.44;109056;1276;138757;-60
2022/01/31 02:39:54;;;;;;;2.00;1.10;;;;;;;0.18;88.89;97067.13;109083;1276;23300;-63
2022/01/31 02:42:23;;;;;;;2.50;1.30;;;;;;;0.18;88.56;97063.64;109051;1277;138213;-63
2022/01/31 02:44:51;;;;;;;1.80;1.00;;;;;;;0.20;88.73;97063.87;109212;1276;22466;-63
2022/01/31 02:47:26;;;;;;;1.90;1.00;;;;;;;0.20;88.49;97066.29;109016;1277;138786;-63
2022/01/31 02:49:59;;;;;;;2.50;1.10;;;;;;;0.21;88.43;97067.16;108983;1277;186734;-63
2022/01/31 02:53:45;;;;;;;2.60;1.10;;;;;;;0.21;88.10;97066.30;101497;1311;545738;-61
2022/01/31 02:56:13;;;;;;;2.20;0.90;;;;;;;0.14;87.96;97059.10;103335;1290;23359;-62
2022/01/31 02:58:41;;;;;;;1.90;0.80;;;;;;;0.15;87.65;97063.66;103387;1289;24042;-62
2022/01/31 03:01:09;;;;;;;1.50;0.90;;;;;;;0.15;87.84;97064.90;103266;1290;137608;-61
2022/01/31 03:03:41;;;;;;;2.20;1.00;;;;;;;0.13;87.51;97066.23;107597;1289;22460;-62
2022/01/31 03:06:09;;;;;;;1.30;0.70;;;;;;;0.11;87.33;97065.34;107552;1290;137317;-62
2022/01/31 03:08:41;;;;;;;1.60;0.90;;;;;;;0.10;86.95;97064.05;107682;1287;23257;-62
2022/01/31 03:11:20;;;;;;;1.90;1.00;;;;;;;0.11;86.75;97058.91;107839;1288;137740;-62
2022/01/31 03:13:55;;;;;;;1.40;0.70;;;;;;;0.12;86.73;97061.61;107924;1287;22481;-64
2022/01/31 03:16:23;;;;;;;1.50;0.70;;;;;;;0.13;86.48;97066.23;107888;1287;22528;-64
2022/01/31 03:19:09;;;;;;;0.90;0.70;;;;;;;0.13;86.21;97067.09;108146;1286;136934;-64
2022/01/31 03:21:38;;;;;;;1.00;0.80;;;;;;;0.13;86.11;97065.81;108279;1286;22537;-64
2022/01/31 03:24:06;;;;;;;3.10;0.80;;;;;;;0.14;86.09;97068.86;107963;1286;136765;-63
2022/01/31 03:26:34;;;;;;;2.90;1.60;;;;;;;0.13;85.96;97069.16;108185;1286;23188;-62
2022/01/31 03:29:03;;;;;;;1.00;0.80;;;;;;;0.11;86.17;97071.72;108117;1286;22442;-63
2022/01/31 03:31:32;;;;;;;1.50;0.90;;;;;;;0.10;86.08;97072.73;108104;1286;137526;-62
2022/01/31 03:34:00;;;;;;;1.60;0.90;;;;;;;0.11;86.38;97072.84;108224;1286;22589;-63
2022/01/31 03:36:28;;;;;;;1.00;0.80;;;;;;;0.10;86.35;97073.15;108126;1286;138486;-63
2022/01/31 03:38:56;;;;;;;1.20;0.90;;;;;;;0.09;86.39;97073.56;108035;1287;23482;-63
2022/01/31 03:41:25;;;;;;;1.90;1.10;;;;;;;0.07;86.87;97069.15;107833;1287;139187;-59
2022/01/31 03:43:53;;;;;;;2.60;1.40;;;;;;;0.06;86.91;97065.39;108014;1288;22465;-59
2022/01/31 03:46:21;;;;;;;2.90;1.60;;;;;;;0.05;86.96;97070.89;107991;1287;22492;-59
2022/01/31 03:48:49;;;;;;;3.70;1.50;;;;;;;0.03;87.44;97073.16;107863;1287;137639;-59
2022/01/31 03:51:32;;;;;;;3.50;1.30;;;;;;;0.02;87.31;97075.23;107975;1287;22539;-58
2022/01/31 03:54:01;;;;;;;1.30;1.00;;;;;;;0.00;87.45;97078.34;107829;1287;137669;-59
2022/01/31 03:56:29;;;;;;;2.90;1.60;;;;;;;-0.01;87.56;97079.61;107797;1288;22508;-59
2022/01/31 03:59:16;;;;;;;5.60;1.10;;;;;;;-0.04;87.28;97081.19;107800;1288;136910;-59
2022/01/31 04:01:44;;;;;;;2.30;1.20;;;;;;;-0.07;87.20;97081.84;107922;1287;22269;-59
2022/01/31 04:04:13;;;;;;;2.30;1.60;;;;;;;-0.09;86.90;97082.67;107903;1287;23419;-59
2022/01/31 04:06:41;;;;;;;2.10;1.10;;;;;;;-0.09;86.94;97080.85;107729;1288;138601;-60
2022/01/31 04:09:09;;;;;;;5.30;1.40;;;;;;;-0.09;86.92;97078.44;107915;1288;22444;-59
2022/01/31 04:11:37;;;;;;;3.10;1.60;;;;;;;-0.08;86.58;97077.23;107760;1287;137562;-59
2022/01/31 04:14:05;;;;;;;4.60;2.20;;;;;;;-0.08;86.75;97081.23;107802;1287;22496;-59
2022/01/31 04:16:33;;;;;;;3.40;1.70;;;;;;;-0.07;86.95;97080.55;107894;1287;22425;-59
2022/01/31 04:19:01;;;;;;;3.10;1.30;;;;;;;-0.06;86.62;97083.14;107769;1287;138655;-59
2022/01/31 04:21:29;;;;;;;3.20;1.40;;;;;;;-0.06;86.56;97086.58;107860;1288;22597;-59
2022/01/31 04:23:58;;;;;;;2.10;0.90;;;;;;;-0.07;86.32;97089.45;107794;1287;137892;-59
2022/01/31 04:26:32;;;;;;;1.50;1.10;;;;;;;-0.07;86.43;97091.95;107895;1287;22919;-58
2022/01/31 04:29:09;;;;;;;3.50;1.20;;;;;;;-0.08;86.60;97094.25;107851;1287;22487;-59
2022/01/31 04:31:44;;;;;;;3.40;1.00;;;;;;;-0.08;86.31;97100.83;107800;1287;137279;-59
2022/01/31 04:34:13;;;;;;;1.60;0.90;;;;;;;-0.07;86.32;97103.78;107872;1288;23774;-59
2022/01/31 04:36:41;;;;;;;1.60;0.80;;;;;;;-0.08;86.33;97110.30;107762;1288;138689;-59
2022/01/31 04:39:15;;;;;;;3.00;0.90;;;;;;;-0.11;86.15;97104.06;107914;1287;22554;-59
2022/01/31 04:41:44;;;;;;;1.60;1.20;;;;;;;-0.08;85.93;97113.29;107740;1287;137919;-59
2022/01/31 04:44:12;;;;;;;2.10;1.20;;;;;;;-0.09;85.82;97109.22;107870;1287;22467;-59
2022/01/31 04:46:41;;;;;;;2.60;1.20;;;;;;;-0.08;85.85;97110.94;107893;1287;22493;-59
2022/01/31 04:49:09;;;;;;;2.50;1.60;;;;;;;-0.12;85.68;97107.34;107771;1287;138562;-59
2022/01/31 04:51:37;;;;;;;2.80;1.60;;;;;;;-0.10;85.90;97116.46;107881;1287;22553;-59
2022/01/31 04:54:04;;;;;;;2.30;1.30;;;;;;;-0.10;86.05;97123.34;107811;1287;137327;-59
2022/01/31 04:56:34;;;;;;;2.60;1.50;;;;;;;-0.12;86.00;97124.91;108022;1286;23281;-59
2022/01/31 04:59:02;;;;;;;1.40;1.00;;;;;;;-0.13;85.74;97128.16;107998;1287;22457;-59
2022/01/31 05:01:31;;;;;;;2.00;1.10;;;;;;;-0.13;85.64;97132.48;107868;1286;139108;-60
2022/01/31 05:03:59;;;;;;;1.90;1.00;;;;;;;-0.15;85.70;97128.25;108074;1286;22572;-59
2022/01/31 05:06:37;;;;;;;4.60;1.10;;;;;;;-0.16;85.58;97130.39;107911;1287;139532;-59
2022/01/31 05:09:05;;;;;;;4.00;1.20;;;;;;;-0.17;85.55;97135.73;107870;1287;22452;-59
2022/01/31 05:11:33;;;;;;;2.10;1.20;;;;;;;-0.18;85.49;97138.60;107876;1286;139498;-59
2022/01/31 05:14:01;;;;;;;3.00;1.40;;;;;;;-0.17;85.72;97146.16;107898;1287;22497;-59
2022/01/31 05:16:29;;;;;;;2.40;1.70;;;;;;;-0.17;85.67;97148.26;107995;1287;22496;-59
2022/01/31 05:19:04;;;;;;;2.40;1.20;;;;;;;-0.17;85.67;97149.97;107894;1286;136694;-59
2022/01/31 05:21:32;;;;;;;5.70;2.10;;;;;;;-0.17;85.76;97152.74;108021;1286;22516;-59
2022/01/31 05:24:02;;;;;;;3.50;1.40;;;;;;;-0.18;85.59;97152.30;107895;1287;138986;-60
2022/01/31 05:26:30;;;;;;;4.10;1.60;;;;;;;-0.20;85.44;97154.46;107805;1286;22552;-59
2022/01/31 05:28:58;;;;;;;3.50;1.20;;;;;;;-0.21;85.52;97153.91;107977;1286;23692;-59
2022/01/31 05:31:26;;;;;;;2.00;1.00;;;;;;;-0.22;85.53;97156.95;107772;1288;138607;-59
2022/01/31 05:33:55;;;;;;;5.30;1.90;;;;;;;-0.23;85.43;97160.52;108007;1286;24385;-59
2022/01/31 05:36:24;;;;;;;3.00;1.40;;;;;;;-0.24;85.50;97162.80;107891;1287;138288;-59
2022/01/31 05:38:52;;;;;;;2.20;1.50;;;;;;;-0.25;85.73;97161.99;107979;1286;23059;-59
2022/01/31 05:41:20;;;;;;;4.00;1.20;;;;;;;-0.24;85.66;97169.34;107868;1287;140230;-59
2022/01/31 05:43:49;;;;;;;3.20;2.60;;;;;;;-0.25;85.62;97171.09;108038;1286;23087;-59
2022/01/31 05:46:17;;;;;;;4.20;2.00;;;;;;;-0.26;85.41;97170.05;108010;1287;22500;-59
2022/01/31 05:48:45;;;;;;;3.50;2.00;;;;;;;-0.28;85.40;97172.65;107907;1287;138664;-60
2022/01/31 05:51:15;;;;;;;9.40;4.50;;;;;;;-0.30;85.40;97178.25;108064;1287;22525;-59
2022/01/31 05:53:43;;;;;;;11.10;6.70;;;;;;;-0.32;85.66;97181.38;107921;1286;137535;-60
2022/01/31 05:56:14;;;;;;;9.80;6.60;;;;;;;-0.33;85.61;97186.92;108025;1286;22472;-59
2022/01/31 05:58:42;;;;;;;17.40;9.50;;;;;;;-0.35;85.58;97186.27;108031;1286;22455;-60
2022/01/31 06:01:10;;;;;;;11.60;5.50;;;;;;;-0.35;85.79;97191.23;107850;1286;139105;-60
2022/01/31 06:03:39;;;;;;;13.70;7.30;;;;;;;-0.36;85.77;97188.54;108729;1279;24339;-59
2022/01/31 06:06:07;;;;;;;13.10;5.50;;;;;;;-0.38;85.72;97190.64;108537;1281;137729;-59
2022/01/31 06:08:35;;;;;;;13.10;4.50;;;;;;;-0.42;85.91;97189.63;108740;1279;22450;-60
2022/01/31 06:11:03;;;;;;;8.50;4.20;;;;;;;-0.43;85.78;97190.41;108740;1279;22469;-60
2022/01/31 06:13:33;;;;;;;8.70;5.30;;;;;;;-0.41;85.75;97194.45;108659;1280;139728;-60
2022/01/31 06:16:02;;;;;;;5.80;3.60;;;;;;;-0.41;85.96;97187.11;108767;1279;22545;-59
2022/01/31 06:18:30;;;;;;;7.70;3.20;;;;;;;-0.41;85.91;97190.61;108501;1280;138572;-60
2022/01/31 06:20:58;;;;;;;3.60;2.00;;;;;;;-0.41;86.04;97188.45;108754;1278;23268;-59
2022/01/31 06:23:26;;;;;;;4.20;2.10;;;;;;;-0.40;86.05;97191.94;108617;1280;138232;-59
2022/01/31 06:25:54;;;;;;;4.10;1.90;;;;;;;-0.41;85.99;97195.04;108705;1280;22726;-59
2022/01/31 06:28:23;;;;;;;2.90;1.60;;;;;;;-0.41;86.06;97193.23;108505;1281;22592;-60
2022/01/31 06:30:58;;;;;;;3.30;1.80;;;;;;;-0.41;86.24;97195.09;108496;1281;138230;-60
2022/01/31 06:33:26;;;;;;;5.70;3.40;;;;;;;-0.41;86.21;97197.39;108560;1279;22503;-60
2022/01/31 06:35:54;;;;;;;4.60;2.90;;;;;;;-0.42;86.44;97192.19;108699;1279;138310;-60
2022/01/31 06:38:23;;;;;;;5.20;3.90;;;;;;;-0.39;86.36;97201.39;108660;1279;22446;-60
2022/01/31 06:40:51;;;;;;;2.60;2.10;;;;;;;-0.38;86.51;97205.74;108736;1279;22643;-60
2022/01/31 06:43:19;;;;;;;4.00;2.60;;;;;;;-0.37;86.40;97206.77;108551;1279;138517;-60
2022/01/31 06:45:47;;;;;;;5.10;3.10;;;;;;;-0.39;86.70;97212.89;108783;1279;22415;-60
2022/01/31 06:48:15;;;;;;;4.10;2.80;;;;;;;-0.39;86.55;97219.20;108639;1279;138021;-60
2022/01/31 06:50:43;;;;;;;3.50;2.10;;;;;;;-0.38;86.72;97220.02;108735;1279;23262;-60
2022/01/31 06:53:12;;;;;;;4.50;2.60;;;;;;;-0.38;86.59;97218.67;108777;1279;22475;-60
2022/01/31 06:55:40;;;;;;;5.00;1.70;;;;;;;-0.38;86.49;97214.14;108668;1279;137598;-60
2022/01/31 06:58:08;;;;;;;2.50;1.70;;;;;;;-0.39;86.26;97217.13;108714;1279;22293;-60
2022/01/31 07:00:36;;;;;;;3.40;2.10;;;;;;;-0.40;86.06;97214.20;108612;1279;138284;-60
2022/01/31 07:03:06;;;;;;;3.30;1.40;;;;;;;-0.42;86.11;97218.98;108723;1279;23735;-60
2022/01/31 07:05:34;;;;;;;3.30;1.80;;;;;;;-0.42;86.09;97227.82;108637;1280;138971;-60
2022/01/31 07:08:02;;;;;;;4.80;1.50;;;;;;;-0.41;85.90;97229.81;108810;1280;22878;-60
2022/01/31 07:10:30;;;;;;;3.00;1.80;;;;;;;-0.40;85.94;97232.55;108808;1279;22482;-59
2022/01/31 07:13:03;;;;;;;2.00;1.20;;;;;;;-0.41;85.47;97235.70;108504;1280;138519;-60
2022/01/31 07:15:31;;;;;;;1.80;0.90;;;;;;;-0.44;85.32;97226.73;108439;1281;22464;-59
2022/01/31 07:17:59;;;;;;;1.90;1.30;;;;;;;-0.39;84.88;97232.16;108667;1278;138102;-60
2022/01/31 07:20:40;;;;;;;2.60;1.20;;;;;;;-0.38;84.73;97241.27;108773;1279;22468;-60
2022/01/31 07:23:15;;;;;;;1.80;1.30;;;;;;;-0.37;84.30;97239.02;108736;1279;23164;-60
2022/01/31 07:25:43;;;;;;;2.40;1.20;;;;;;;-0.37;84.26;97241.70;108532;1279;138694;-60
2022/01/31 07:28:12;;;;;;;3.00;1.40;;;;;;;-0.36;84.07;97240.48;108455;1281;22472;-60
2022/01/31 07:30:40;;;;;;;1.80;1.00;;;;;;;-0.37;83.90;97250.38;108581;1279;137847;-60
2022/01/31 07:33:09;;;;;;;2.20;1.40;;;;;;;-0.37;83.57;97249.52;108662;1279;22486;-59
2022/01/31 07:35:39;;;;;;;2.20;1.40;;;;;;;-0.37;83.28;97245.02;108303;1280;137993;-60
2022/01/31 07:38:07;;;;;;;2.90;1.50;;;;;;;-0.35;83.12;97242.07;108511;1280;23308;-60
2022/01/31 07:40:36;;;;;;;4.30;2.00;;;;;;;-0.27;83.04;97249.23;108738;1279;22753;-60
2022/01/31 07:43:03;;;;;;;4.30;2.00;;;;;;;-0.22;82.96;97255.04;108658;1279;138464;-60
2022/01/31 07:45:33;;;;;;;4.80;2.50;;;;;;;-0.17;83.15;97261.39;108605;1279;22611;-60
2022/01/31 07:48:01;;;;;;;5.60;3.00;;;;;;;-0.16;83.19;97257.86;108578;1280;137329;-60
2022/01/31 07:50:32;;;;;;;3.80;2.30;;;;;;;-0.12;83.31;97264.89;108758;1279;22473;-60
2022/01/31 07:53:03;;;;;;;5.70;2.00;;;;;;;-0.10;83.22;97266.30;108716;1279;22491;-59
2022/01/31 07:55:32;;;;;;;11.90;3.00;;;;;;;-0.10;83.24;97271.27;108700;1279;138078;-60
2022/01/31 07:58:00;;;;;;;5.40;2.60;;;;;;;-0.10;83.67;97270.20;108718;1279;23245;-59
2022/01/31 08:00:45;;;;;;;4.30;2.50;;;;;;;-0.08;84.02;97278.05;108631;1281;138291;-60
2022/01/31 08:03:13;;;;;;;5.10;2.90;;;;;;;-0.04;84.13;97283.90;108757;1279;22499;-59
2022/01/31 08:05:42;;;;;;;4.40;2.30;;;;;;;-0.04;83.88;97280.27;108658;1279;140002;-59
2022/01/31 08:08:10;;;;;;;5.20;2.70;;;;;;;0.02;83.76;97283.65;108765;1278;23136;-59
2022/01/31 08:10:39;;;;;;;4.00;2.10;;;;;;;0.05;83.62;97277.07;108848;1280;22540;-59
2022/01/31 08:13:08;;;;;;;4.30;2.20;;;;;;;0.07;83.31;97283.89;108692;1278;138083;-60
2022/01/31 08:16:01;;;;;;;3.80;2.30;;;;;;;0.08;83.68;97283.95;108787;1279;22488;-60
2022/01/31 08:18:30;;;;;;;3.90;2.20;;;;;;;0.06;83.24;97289.07;108599;1280;138169;-59
2022/01/31 08:20:59;;;;;;;5.30;2.10;;;;;;;0.04;83.28;97289.79;108804;1279;22399;-60
2022/01/31 08:23:26;;;;;;;2.80;1.80;;;;;;;0.00;83.01;97296.38;108644;1279;137579;-59
2022/01/31 08:25:54;;;;;;;3.00;1.90;;;;;;;-0.02;83.14;97303.53;108767;1279;22413;-59
2022/01/31 08:28:31;;;;;;;3.10;1.70;;;;;;;-0.04;83.20;97308.11;108736;1279;22547;-60
2022/01/31 08:31:12;;;;;;;;;;;;;;;-0.06;83.08;97315.23;108660;1279;139986;-59
2022/01/31 08:34:03;;;;;;;6.60;3.30;;;;;;;-0.08;82.91;97317.17;108751;1279;22457;-60
2022/01/31 08:36:34;;;;;;;5.80;1.50;;;;;;;-0.11;83.02;97319.02;108625;1279;138655;-60
2022/01/31 08:39:10;;;;;;;4.40;1.90;;;;;;;-0.13;82.92;97321.49;108794;1280;22491;-61
2022/01/31 08:41:41;;;;;;;3.60;2.10;;;;;;;-0.12;82.66;97324.61;104323;1280;138759;-59
2022/01/31 08:44:10;;;;;;;10.10;3.20;;;;;;;-0.13;82.50;97317.83;108753;1279;22486;-60
2022/01/31 08:46:41;;;;;;;24.40;9.00;;;;;;;-0.15;82.26;97314.88;108787;1279;22428;-60
2022/01/31 08:49:09;;;;;;;7.50;3.70;;;;;;;-0.12;81.90;97319.83;108596;1279;137234;-60
2022/01/31 08:51:38;;;;;;;5.10;2.70;;;;;;;-0.14;81.54;97322.16;108776;1279;22552;-60
2022/01/31 08:54:06;;;;;;;28.40;10.30;;;;;;;-0.14;80.83;97323.39;108674;1280;138002;-60
2022/01/31 08:56:40;;;;;;;24.60;10.70;;;;;;;-0.15;80.37;97325.96;108690;1280;23347;-59
2022/01/31 08:59:08;;;;;;;31.90;9.90;;;;;;;-0.16;79.93;97321.34;108651;1281;22533;-59
2022/01/31 09:01:37;;;;;;;18.80;6.30;;;;;;;-0.14;79.38;97330.35;108613;1280;140281;-60
2022/01/31 09:04:08;;;;;;;11.00;4.70;;;;;;;-0.14;79.35;97338.33;108761;1280;23384;-60
2022/01/31 09:06:36;;;;;;;20.40;6.50;;;;;;;-0.12;79.00;97342.05;108635;1280;138487;-59
2022/01/31 09:09:08;;;;;;;20.10;6.60;;;;;;;-0.10;78.88;97343.48;108795;1279;22582;-59
2022/01/31 09:11:37;;;;;;;20.40;6.70;;;;;;;-0.08;78.66;97344.48;108644;1279;137651;-60
2022/01/31 09:14:05;;;;;;;14.90;5.30;;;;;;;-0.09;79.09;97341.86;108660;1281;23604;-58
2022/01/31 09:16:33;;;;;;;28.50;7.70;;;;;;;-0.04;79.21;97349.64;108668;1279;22518;-58
2022/01/31 09:19:02;;;;;;;24.00;6.50;;;;;;;-0.02;78.88;97350.11;108574;1279;138546;-57
2022/01/31 09:21:31;;;;;;;18.70;6.20;;;;;;;0.01;79.19;97353.61;108720;1279;22474;-58
2022/01/31 09:23:59;;;;;;;10.40;3.40;;;;;;;0.03;79.16;97357.17;108588;1280;139003;-58
2022/01/31 09:26:27;;;;;;;16.30;5.60;;;;;;;0.05;79.18;97357.95;108730;1279;22562;-58
2022/01/31 09:28:55;;;;;;;34.00;9.40;;;;;;;0.08;79.16;97358.80;108724;1279;23418;-58
2022/01/31 09:31:23;;;;;;;40.00;11.70;;;;;;;0.07;79.36;97360.99;108656;1279;138433;-58
2022/01/31 09:33:51;;;;;;;30.00;8.20;;;;;;;0.05;78.98;97363.68;108736;1280;22537;-58
2022/01/31 09:36:22;;;;;;;16.00;5.10;;;;;;;0.02;78.67;97366.80;108515;1280;137523;-58
2022/01/31 09:38:50;;;;;;;35.10;8.20;;;;;;;-0.01;78.58;97372.66;108767;1279;22491;-58
2022/01/31 09:41:22;;;;;;;25.50;7.50;;;;;;;-0.06;78.42;97364.70;108831;1279;22477;-62
2022/01/31 09:46:44;;;;;;;38.90;9.00;;;;;;;-0.05;78.12;97375.38;108740;1278;22492;-62
2022/01/31 09:49:06;;;;;;;28.60;7.40;;;;;;;-0.04;78.24;97377.58;108651;1281;138000;-62
2022/01/31 09:51:35;;;;;;;28.30;7.40;;;;;;;-0.01;78.35;97383.27;108705;1279;23321;-62
2022/01/31 09:54:03;;;;;;;42.90;11.10;;;;;;;0.01;78.26;97393.39;108636;1279;138760;-62
2022/01/31 09:56:33;;;;;;;18.70;5.70;;;;;;;0.03;78.76;97389.52;108733;1279;23590;-62
2022/01/31 09:59:01;;;;;;;20.00;7.40;;;;;;;0.04;78.68;97388.83;108774;1280;22549;-62
2022/01/31 10:01:41;;;;;;;22.50;6.90;;;;;;;0.02;79.12;97391.59;108656;1279;137341;-62
2022/01/31 10:04:16;;;;;;;14.60;3.70;;;;;;;0.02;78.89;97390.14;108766;1279;23470;-62
2022/01/31 10:06:50;;;;;;;35.10;10.40;;;;;;;0.02;79.25;97395.45;108767;1280;137432;-62
2022/01/31 10:09:19;;;;;;;12.30;3.80;;;;;;;0.00;79.22;97394.19;108755;1279;22407;-62
2022/01/31 10:11:55;;;;;;;18.50;6.80;;;;;;;-0.00;79.72;97394.94;108660;1279;137991;-62
2022/01/31 10:17:29;;;;;;;11.20;4.10;;;;;;;-0.02;79.93;97395.29;108840;1279;22480;-62
2022/01/31 10:20:14;;;;;;;10.90;3.90;;;;;;;-0.05;80.15;97389.83;108684;1280;139183;-62
2022/01/31 10:22:42;;;;;;;16.10;5.50;;;;;;;-0.08;80.21;97391.54;108796;1280;22555;-62
2022/01/31 10:25:12;;;;;;;19.50;7.20;;;;;;;-0.11;80.17;97389.34;108704;1279;137625;-62
2022/01/31 10:28:00;;;;;;;24.50;7.50;;;;;;;-0.15;80.10;97389.86;108788;1279;23823;-62
2022/01/31 10:30:30;;;;;;;26.50;8.20;;;;;;;-0.18;79.91;97390.56;108654;1279;138747;-62
2022/01/31 10:32:58;;;;;;;20.10;6.20;;;;;;;-0.21;80.08;97391.77;108743;1279;23202;-62
2022/01/31 10:35:31;;;;;;;23.80;7.50;;;;;;;-0.22;79.97;97397.88;108727;1279;24329;-62
2022/01/31 10:38:03;;;;;;;16.40;5.00;;;;;;;-0.22;79.83;97401.95;108631;1279;138218;-62
2022/01/31 10:46:33;;;;;;;12.80;4.60;;;;;;;-0.20;79.88;97401.83;108696;1279;22450;-58
2022/01/31 10:57:23;;;;;;;17.50;6.90;;;;;;;-0.23;80.11;97408.94;108714;1279;23419;-58
2022/01/31 11:00:01;;;;;;;14.20;4.90;;;;;;;-0.22;79.94;97406.01;108579;1279;137633;-58
2022/01/31 11:02:29;;;;;;;13.40;4.70;;;;;;;-0.21;79.52;97412.73;108712;1279;23953;-58
2022/01/31 11:04:57;;;;;;;10.80;3.90;;;;;;;-0.21;78.86;97409.93;108712;1279;22888;-58
2022/01/31 11:07:26;;;;;;;6.20;2.60;;;;;;;-0.21;78.96;97411.33;108390;1281;138526;-58
2022/01/31 11:09:54;;;;;;;12.70;4.60;;;;;;;-0.19;78.62;97415.71;108534;1281;22577;-61
2022/01/31 11:12:36;;;;;;;18.30;6.70;;;;;;;-0.19;78.56;97419.61;108584;1279;137346;-58
2022/01/31 11:15:05;;;;;;;11.80;5.00;;;;;;;-0.20;78.44;97417.93;108704;1279;23078;-58
2022/01/31 11:17:35;;;;;;;13.00;5.50;;;;;;;-0.20;78.86;97415.95;108616;1279;22472;-58
2022/01/31 11:20:06;;;;;;;10.40;4.20;;;;;;;-0.18;78.71;97422.91;108588;1278;137289;-57
2022/01/31 11:22:42;;;;;;;8.10;3.60;;;;;;;-0.18;78.15;97421.92;108610;1281;23251;-58
2022/01/31 11:25:18;;;;;;;12.90;5.40;;;;;;;-0.17;78.24;97420.02;108701;1278;138775;-57
2022/01/31 11:27:52;;;;;;;11.00;5.30;;;;;;;-0.17;78.30;97428.16;108669;1280;22592;-58
2022/01/31 11:30:21;;;;;;;10.00;4.60;;;;;;;-0.17;78.25;97421.31;108461;1280;138361;-58
2022/01/31 11:32:50;;;;;;;8.50;3.70;;;;;;;-0.14;78.25;97425.95;108791;1280;23360;-58
2022/01/31 11:35:18;;;;;;;8.90;4.30;;;;;;;-0.13;78.14;97427.84;108862;1279;22479;-58
2022/01/31 11:37:46;;;;;;;7.60;3.70;;;;;;;-0.12;78.30;97433.38;108798;1280;137595;-58
2022/01/31 11:40:14;;;;;;;5.70;2.70;;;;;;;-0.10;77.74;97432.39;106683;1280;22719;-61
2022/01/31 11:42:46;;;;;;;4.70;2.80;;;;;;;-0.10;77.84;97437.11;104093;1279;139215;-61
2022/01/31 11:45:20;;;;;;;8.10;3.80;;;;;;;-0.08;77.56;97431.52;108746;1279;22531;-62
2022/01/31 11:47:49;;;;;;;13.60;5.60;;;;;;;-0.06;77.87;97436.27;108462;1279;138995;-61
2022/01/31 11:50:19;;;;;;;7.90;4.10;;;;;;;-0.04;77.36;97444.13;108744;1279;22540;-62
2022/01/31 11:52:49;;;;;;;7.60;3.50;;;;;;;-0.03;77.10;97440.07;108702;1279;23485;-62
2022/01/31 11:55:19;;;;;;;6.60;3.60;;;;;;;-0.01;77.27;97440.11;108608;1279;138164;-62
2022/01/31 11:57:49;;;;;;;7.10;3.50;;;;;;;0.02;77.00;97441.00;108737;1279;22486;-62
2022/01/31 12:00:18;;;;;;;6.50;3.50;;;;;;;0.05;76.97;97445.45;108636;1279;137984;-62
2022/01/31 12:02:48;;;;;;;6.10;3.00;;;;;;;0.04;76.52;97448.21;108666;1279;22525;-62